sensor_id;sensor_type;location;lat;lon;timestamp;temperature;humidity
7192;DHT22;3637;51.494;11.958;2022-10-20T00:00:06;8.50;99.90
7192;DHT22;3637;51.494;11.958;2022-10-20T00:03:08;8.40;99.90
7192;DHT22;3637;51.494;11.958;2022-10-20T00:06:12;8.40;99.90
7192;DHT22;3637;51.494;11.958;2022-10-20T00:09:14;8.40;99.90
7192;DHT22;3637;51.494;11.958;2022-10-20T00:12:17;8.40;99.90
7192;DHT22;3637;51.494;11.958;2022-10-20T00:15:19;8.40;99.90
7192;DHT22;3637;51.494;11.958;2022-10-20T00:18:22;8.30;99.90
7192;DHT22;3637;51.494;11.958;2022-10-20T00:21:26;8.40;99.90
7192;DHT22;3637;51.494;11.958;2022-10-20T00:24:28;8.40;99.90
7192;DHT22;3637;51.494;11.958;2022-10-20T00:27:31;8.40;99.90
7192;DHT22;3637;51.494;11.958;2022-10-20T00:30:34;8.40;99.90
7192;DHT22;3637;51.494;11.958;2022-10-20T00:33:36;8.40;99.90
7192;DHT22;3637;51.494;11.958;2022-10-20T00:36:38;8.30;99.90
7192;DHT22;3637;51.494;11.958;2022-10-20T00:39:40;8.30;99.90
7192;DHT22;3637;51.494;11.958;2022-10-20T00:42:44;8.30;99.90
7192;DHT22;3637;51.494;11.958;2022-10-20T00:45:50;8.20;99.90
7192;DHT22;3637;51.494;11.958;2022-10-20T00:48:56;8.20;99.90
7192;DHT22;3637;51.494;11.958;2022-10-20T00:51:58;8.40;99.90
7192;DHT22;3637;51.494;11.958;2022-10-20T00:55:00;8.30;99.90
7192;DHT22;3637;51.494;11.958;2022-10-20T00:58:04;8.30;99.90
7192;DHT22;3637;51.494;11.958;2022-10-20T01:01:06;8.30;99.90
7192;DHT22;3637;51.494;11.958;2022-10-20T01:04:08;8.30;99.90
7192;DHT22;3637;51.494;11.958;2022-10-20T01:07:10;8.40;99.90
7192;DHT22;3637;51.494;11.958;2022-10-20T01:10:13;8.20;99.90
7192;DHT22;3637;51.494;11.958;2022-10-20T01:13:23;8.30;99.90
7192;DHT22;3637;51.494;11.958;2022-10-20T01:16:36;8.20;99.90
7192;DHT22;3637;51.494;11.958;2022-10-20T01:23:32;8.30;99.90
7192;DHT22;3637;51.494;11.958;2022-10-20T01:30:11;8.20;99.90
7192;DHT22;3637;51.494;11.958;2022-10-20T01:33:19;8.20;99.90
7192;DHT22;3637;51.494;11.958;2022-10-20T01:36:27;8.30;99.90
7192;DHT22;3637;51.494;11.958;2022-10-20T01:39:36;8.20;99.90
7192;DHT22;3637;51.494;11.958;2022-10-20T01:42:41;8.20;99.90
7192;DHT22;3637;51.494;11.958;2022-10-20T01:45:48;8.20;99.90
7192;DHT22;3637;51.494;11.958;2022-10-20T01:48:51;8.20;99.90
7192;DHT22;3637;51.494;11.958;2022-10-20T01:51:53;8.30;99.90
7192;DHT22;3637;51.494;11.958;2022-10-20T01:54:55;8.10;99.90
7192;DHT22;3637;51.494;11.958;2022-10-20T01:58:19;8.10;99.90
7192;DHT22;3637;51.494;11.958;2022-10-20T02:01:32;8.10;99.90
7192;DHT22;3637;51.494;11.958;2022-10-20T02:04:46;8.10;99.90
7192;DHT22;3637;51.494;11.958;2022-10-20T02:07:52;8.20;99.90
7192;DHT22;3637;51.494;11.958;2022-10-20T02:10:58;8.10;99.90
7192;DHT22;3637;51.494;11.958;2022-10-20T02:14:01;8.10;99.90
7192;DHT22;3637;51.494;11.958;2022-10-20T02:17:07;8.30;99.90
7192;DHT22;3637;51.494;11.958;2022-10-20T02:20:12;8.10;99.90
7192;DHT22;3637;51.494;11.958;2022-10-20T02:23:15;8.10;99.90
7192;DHT22;3637;51.494;11.958;2022-10-20T02:26:19;8.10;99.90
7192;DHT22;3637;51.494;11.958;2022-10-20T02:29:25;8.10;99.90
7192;DHT22;3637;51.494;11.958;2022-10-20T02:32:31;8.30;99.90
7192;DHT22;3637;51.494;11.958;2022-10-20T02:35:33;8.00;99.90
7192;DHT22;3637;51.494;11.958;2022-10-20T02:38:35;7.90;99.90
7192;DHT22;3637;51.494;11.958;2022-10-20T02:41:37;7.90;99.90
7192;DHT22;3637;51.494;11.958;2022-10-20T02:44:39;7.90;99.90
7192;DHT22;3637;51.494;11.958;2022-10-20T02:47:42;7.80;99.90
7192;DHT22;3637;51.494;11.958;2022-10-20T02:50:44;7.70;99.90
7192;DHT22;3637;51.494;11.958;2022-10-20T02:53:46;7.60;99.90
7192;DHT22;3637;51.494;11.958;2022-10-20T02:56:49;7.50;99.90
7192;DHT22;3637;51.494;11.958;2022-10-20T02:59:51;7.40;99.90
7192;DHT22;3637;51.494;11.958;2022-10-20T03:02:54;7.40;99.90
7192;DHT22;3637;51.494;11.958;2022-10-20T03:05:56;7.30;99.90
7192;DHT22;3637;51.494;11.958;2022-10-20T03:08:58;7.40;99.90
7192;DHT22;3637;51.494;11.958;2022-10-20T03:12:00;7.30;99.90
7192;DHT22;3637;51.494;11.958;2022-10-20T03:15:02;7.20;99.90
7192;DHT22;3637;51.494;11.958;2022-10-20T03:18:06;7.20;99.90
7192;DHT22;3637;51.494;11.958;2022-10-20T03:21:08;7.20;99.90
7192;DHT22;3637;51.494;11.958;2022-10-20T03:24:10;7.20;99.90
7192;DHT22;3637;51.494;11.958;2022-10-20T03:27:12;7.50;99.90
7192;DHT22;3637;51.494;11.958;2022-10-20T03:30:14;7.20;99.90
7192;DHT22;3637;51.494;11.958;2022-10-20T03:33:17;7.10;99.90
7192;DHT22;3637;51.494;11.958;2022-10-20T03:36:19;7.20;99.90
7192;DHT22;3637;51.494;11.958;2022-10-20T03:39:21;7.30;99.90
7192;DHT22;3637;51.494;11.958;2022-10-20T03:42:23;7.30;99.90
7192;DHT22;3637;51.494;11.958;2022-10-20T03:45:24;7.30;99.90
7192;DHT22;3637;51.494;11.958;2022-10-20T03:48:28;7.30;99.90
7192;DHT22;3637;51.494;11.958;2022-10-20T03:51:30;7.30;99.90
7192;DHT22;3637;51.494;11.958;2022-10-20T03:54:34;7.30;99.90
7192;DHT22;3637;51.494;11.958;2022-10-20T03:57:35;7.30;99.90
7192;DHT22;3637;51.494;11.958;2022-10-20T04:00:37;7.30;99.90
7192;DHT22;3637;51.494;11.958;2022-10-20T04:03:41;7.30;99.90
7192;DHT22;3637;51.494;11.958;2022-10-20T04:06:44;7.30;99.90
7192;DHT22;3637;51.494;11.958;2022-10-20T04:09:46;7.20;99.90
7192;DHT22;3637;51.494;11.958;2022-10-20T04:12:48;7.10;99.90
7192;DHT22;3637;51.494;11.958;2022-10-20T04:15:50;7.10;99.90
7192;DHT22;3637;51.494;11.958;2022-10-20T04:18:54;7.20;99.90
7192;DHT22;3637;51.494;11.958;2022-10-20T04:21:56;7.10;99.90
7192;DHT22;3637;51.494;11.958;2022-10-20T04:24:58;7.20;99.90
7192;DHT22;3637;51.494;11.958;2022-10-20T04:28:00;7.10;99.90
7192;DHT22;3637;51.494;11.958;2022-10-20T04:31:02;7.20;99.90
7192;DHT22;3637;51.494;11.958;2022-10-20T04:34:06;7.20;99.90
7192;DHT22;3637;51.494;11.958;2022-10-20T04:37:08;7.30;99.90
7192;DHT22;3637;51.494;11.958;2022-10-20T04:40:10;7.20;99.90
7192;DHT22;3637;51.494;11.958;2022-10-20T04:43:12;7.20;99.90
7192;DHT22;3637;51.494;11.958;2022-10-20T04:46:14;7.20;99.90
7192;DHT22;3637;51.494;11.958;2022-10-20T04:49:17;7.20;99.90
7192;DHT22;3637;51.494;11.958;2022-10-20T04:52:19;7.20;99.90
7192;DHT22;3637;51.494;11.958;2022-10-20T04:55:21;7.10;99.90
7192;DHT22;3637;51.494;11.958;2022-10-20T04:58:24;7.20;99.90
7192;DHT22;3637;51.494;11.958;2022-10-20T05:01:28;7.10;99.90
7192;DHT22;3637;51.494;11.958;2022-10-20T05:04:31;7.10;99.90
7192;DHT22;3637;51.494;11.958;2022-10-20T05:07:33;7.20;99.90
7192;DHT22;3637;51.494;11.958;2022-10-20T05:10:36;7.20;99.90
7192;DHT22;3637;51.494;11.958;2022-10-20T05:13:38;7.20;99.90
7192;DHT22;3637;51.494;11.958;2022-10-20T05:16:40;7.40;99.90
7192;DHT22;3637;51.494;11.958;2022-10-20T05:19:43;7.20;99.90
7192;DHT22;3637;51.494;11.958;2022-10-20T05:22:46;7.20;99.90
7192;DHT22;3637;51.494;11.958;2022-10-20T05:25:48;7.20;99.90
7192;DHT22;3637;51.494;11.958;2022-10-20T05:28:51;7.10;99.90
7192;DHT22;3637;51.494;11.958;2022-10-20T05:31:53;7.20;99.90
7192;DHT22;3637;51.494;11.958;2022-10-20T05:34:56;7.10;99.90
7192;DHT22;3637;51.494;11.958;2022-10-20T05:37:58;7.10;99.90
7192;DHT22;3637;51.494;11.958;2022-10-20T05:41:05;7.10;99.90
7192;DHT22;3637;51.494;11.958;2022-10-20T05:44:09;7.10;99.90
7192;DHT22;3637;51.494;11.958;2022-10-20T05:47:12;7.00;99.90
7192;DHT22;3637;51.494;11.958;2022-10-20T05:50:15;7.10;99.90
7192;DHT22;3637;51.494;11.958;2022-10-20T05:53:17;7.00;99.90
7192;DHT22;3637;51.494;11.958;2022-10-20T05:56:20;7.00;99.90
7192;DHT22;3637;51.494;11.958;2022-10-20T05:59:22;7.00;99.90
7192;DHT22;3637;51.494;11.958;2022-10-20T06:02:24;7.00;99.90
7192;DHT22;3637;51.494;11.958;2022-10-20T06:05:27;7.00;99.90
7192;DHT22;3637;51.494;11.958;2022-10-20T06:08:29;6.90;99.90
7192;DHT22;3637;51.494;11.958;2022-10-20T06:11:32;7.00;99.90
7192;DHT22;3637;51.494;11.958;2022-10-20T06:14:34;7.00;99.90
7192;DHT22;3637;51.494;11.958;2022-10-20T06:17:36;7.00;99.90
7192;DHT22;3637;51.494;11.958;2022-10-20T06:20:39;7.40;99.90
7192;DHT22;3637;51.494;11.958;2022-10-20T06:23:41;7.20;99.90
7192;DHT22;3637;51.494;11.958;2022-10-20T06:26:43;7.10;99.90
7192;DHT22;3637;51.494;11.958;2022-10-20T06:29:45;7.50;99.90
7192;DHT22;3637;51.494;11.958;2022-10-20T06:32:47;7.20;99.90
7192;DHT22;3637;51.494;11.958;2022-10-20T06:35:59;7.10;99.90
7192;DHT22;3637;51.494;11.958;2022-10-20T06:39:02;7.20;99.90
7192;DHT22;3637;51.494;11.958;2022-10-20T06:42:05;7.10;99.90
7192;DHT22;3637;51.494;11.958;2022-10-20T06:45:07;7.20;99.90
7192;DHT22;3637;51.494;11.958;2022-10-20T06:48:09;7.20;99.90
7192;DHT22;3637;51.494;11.958;2022-10-20T06:51:14;7.30;99.90
7192;DHT22;3637;51.494;11.958;2022-10-20T06:54:18;7.30;99.90
7192;DHT22;3637;51.494;11.958;2022-10-20T06:57:20;7.50;99.90
7192;DHT22;3637;51.494;11.958;2022-10-20T07:00:22;7.50;99.90
7192;DHT22;3637;51.494;11.958;2022-10-20T07:03:23;7.60;99.90
7192;DHT22;3637;51.494;11.958;2022-10-20T07:06:28;7.70;99.90
7192;DHT22;3637;51.494;11.958;2022-10-20T07:09:30;7.90;99.90
7192;DHT22;3637;51.494;11.958;2022-10-20T07:12:32;7.70;99.90
7192;DHT22;3637;51.494;11.958;2022-10-20T07:15:34;7.70;99.90
7192;DHT22;3637;51.494;11.958;2022-10-20T07:18:36;7.70;99.90
7192;DHT22;3637;51.494;11.958;2022-10-20T07:21:42;7.80;99.90
7192;DHT22;3637;51.494;11.958;2022-10-20T07:24:43;7.80;99.90
7192;DHT22;3637;51.494;11.958;2022-10-20T07:27:45;7.80;99.90
7192;DHT22;3637;51.494;11.958;2022-10-20T07:30:47;8.20;99.90
7192;DHT22;3637;51.494;11.958;2022-10-20T07:33:49;8.00;99.90
7192;DHT22;3637;51.494;11.958;2022-10-20T07:36:53;8.00;99.90
7192;DHT22;3637;51.494;11.958;2022-10-20T07:39:55;8.00;99.90
7192;DHT22;3637;51.494;11.958;2022-10-20T07:42:57;8.10;99.90
7192;DHT22;3637;51.494;11.958;2022-10-20T07:45:59;8.30;99.90
7192;DHT22;3637;51.494;11.958;2022-10-20T07:49:01;8.20;99.90
7192;DHT22;3637;51.494;11.958;2022-10-20T07:52:05;8.20;99.90
7192;DHT22;3637;51.494;11.958;2022-10-20T07:55:07;8.30;99.90
7192;DHT22;3637;51.494;11.958;2022-10-20T07:58:09;8.60;99.90
7192;DHT22;3637;51.494;11.958;2022-10-20T08:01:11;8.50;99.90
7192;DHT22;3637;51.494;11.958;2022-10-20T08:04:13;8.60;99.90
7192;DHT22;3637;51.494;11.958;2022-10-20T08:07:16;8.70;99.90
7192;DHT22;3637;51.494;11.958;2022-10-20T08:10:18;8.90;99.90
7192;DHT22;3637;51.494;11.958;2022-10-20T08:13:20;8.80;99.90
7192;DHT22;3637;51.494;11.958;2022-10-20T08:16:22;8.90;99.90
7192;DHT22;3637;51.494;11.958;2022-10-20T08:19:24;8.80;99.90
7192;DHT22;3637;51.494;11.958;2022-10-20T08:22:27;8.90;99.90
7192;DHT22;3637;51.494;11.958;2022-10-20T08:25:29;9.00;99.90
7192;DHT22;3637;51.494;11.958;2022-10-20T08:28:32;9.10;99.90
7192;DHT22;3637;51.494;11.958;2022-10-20T08:31:34;9.20;99.90
7192;DHT22;3637;51.494;11.958;2022-10-20T08:34:36;9.30;99.90
7192;DHT22;3637;51.494;11.958;2022-10-20T08:37:39;9.40;99.90
7192;DHT22;3637;51.494;11.958;2022-10-20T08:40:42;9.50;99.90
7192;DHT22;3637;51.494;11.958;2022-10-20T08:43:45;9.60;99.90
7192;DHT22;3637;51.494;11.958;2022-10-20T08:46:47;9.70;99.90
7192;DHT22;3637;51.494;11.958;2022-10-20T08:49:50;9.80;99.90
7192;DHT22;3637;51.494;11.958;2022-10-20T08:52:56;9.90;99.90
7192;DHT22;3637;51.494;11.958;2022-10-20T08:55:59;10.10;99.90
7192;DHT22;3637;51.494;11.958;2022-10-20T08:59:01;10.20;99.90
7192;DHT22;3637;51.494;11.958;2022-10-20T09:02:12;10.20;99.90
7192;DHT22;3637;51.494;11.958;2022-10-20T09:05:20;10.30;99.90
7192;DHT22;3637;51.494;11.958;2022-10-20T09:08:27;10.40;99.90
7192;DHT22;3637;51.494;11.958;2022-10-20T09:11:37;10.50;99.90
7192;DHT22;3637;51.494;11.958;2022-10-20T09:14:40;10.60;99.90
7192;DHT22;3637;51.494;11.958;2022-10-20T09:17:44;10.70;99.90
7192;DHT22;3637;51.494;11.958;2022-10-20T09:20:51;10.60;99.90
7192;DHT22;3637;51.494;11.958;2022-10-20T09:24:00;10.70;99.90
7192;DHT22;3637;51.494;11.958;2022-10-20T09:27:18;10.80;99.90
7192;DHT22;3637;51.494;11.958;2022-10-20T09:30:22;10.90;99.90
7192;DHT22;3637;51.494;11.958;2022-10-20T09:33:28;10.90;99.90
7192;DHT22;3637;51.494;11.958;2022-10-20T09:36:33;11.00;99.90
7192;DHT22;3637;51.494;11.958;2022-10-20T09:39:41;11.10;99.90
7192;DHT22;3637;51.494;11.958;2022-10-20T09:42:50;11.00;99.90
7192;DHT22;3637;51.494;11.958;2022-10-20T09:45:55;11.10;99.90
7192;DHT22;3637;51.494;11.958;2022-10-20T09:48:59;11.20;99.90
7192;DHT22;3637;51.494;11.958;2022-10-20T09:52:02;11.30;99.90
7192;DHT22;3637;51.494;11.958;2022-10-20T09:55:18;11.40;99.90
7192;DHT22;3637;51.494;11.958;2022-10-20T09:58:25;11.50;99.90
7192;DHT22;3637;51.494;11.958;2022-10-20T10:01:28;11.70;98.90
7192;DHT22;3637;51.494;11.958;2022-10-20T10:04:33;11.50;98.40
7192;DHT22;3637;51.494;11.958;2022-10-20T10:07:35;11.60;98.70
7192;DHT22;3637;51.494;11.958;2022-10-20T10:10:38;11.50;98.80
7192;DHT22;3637;51.494;11.958;2022-10-20T10:13:42;11.80;98.70
7192;DHT22;3637;51.494;11.958;2022-10-20T10:16:45;11.70;99.30
7192;DHT22;3637;51.494;11.958;2022-10-20T10:19:47;11.80;99.20
7192;DHT22;3637;51.494;11.958;2022-10-20T10:22:49;11.80;99.20
7192;DHT22;3637;51.494;11.958;2022-10-20T10:25:53;11.90;99.00
7192;DHT22;3637;51.494;11.958;2022-10-20T10:28:57;12.00;98.70
7192;DHT22;3637;51.494;11.958;2022-10-20T10:32:00;12.10;98.90
7192;DHT22;3637;51.494;11.958;2022-10-20T10:35:19;12.40;98.90
7192;DHT22;3637;51.494;11.958;2022-10-20T10:38:23;12.30;97.80
7192;DHT22;3637;51.494;11.958;2022-10-20T10:41:39;12.30;97.10
7192;DHT22;3637;51.494;11.958;2022-10-20T10:44:53;12.30;97.00
7192;DHT22;3637;51.494;11.958;2022-10-20T10:48:11;12.40;97.40
7192;DHT22;3637;51.494;11.958;2022-10-20T10:51:27;12.50;97.30
7192;DHT22;3637;51.494;11.958;2022-10-20T10:54:47;12.70;97.10
7192;DHT22;3637;51.494;11.958;2022-10-20T10:58:01;12.60;97.10
7192;DHT22;3637;51.494;11.958;2022-10-20T11:08:20;12.80;96.20
7192;DHT22;3637;51.494;11.958;2022-10-20T11:11:36;12.90;96.30
7192;DHT22;3637;51.494;11.958;2022-10-20T11:14:48;13.10;95.80
7192;DHT22;3637;51.494;11.958;2022-10-20T11:17:59;13.20;95.80
7192;DHT22;3637;51.494;11.958;2022-10-20T11:21:11;13.20;95.00
7192;DHT22;3637;51.494;11.958;2022-10-20T11:24:39;13.20;95.10
7192;DHT22;3637;51.494;11.958;2022-10-20T11:27:43;13.20;95.00
7192;DHT22;3637;51.494;11.958;2022-10-20T11:30:47;13.30;94.30
7192;DHT22;3637;51.494;11.958;2022-10-20T11:33:54;13.40;94.30
7192;DHT22;3637;51.494;11.958;2022-10-20T11:37:01;13.30;94.50
7192;DHT22;3637;51.494;11.958;2022-10-20T11:40:15;13.40;94.60
7192;DHT22;3637;51.494;11.958;2022-10-20T11:43:26;13.50;95.10
7192;DHT22;3637;51.494;11.958;2022-10-20T11:46:35;13.60;94.50
7192;DHT22;3637;51.494;11.958;2022-10-20T11:49:42;13.60;94.50
7192;DHT22;3637;51.494;11.958;2022-10-20T11:53:01;13.80;94.80
7192;DHT22;3637;51.494;11.958;2022-10-20T11:56:38;13.80;94.30
7192;DHT22;3637;51.494;11.958;2022-10-20T12:00:01;13.90;94.70
7192;DHT22;3637;51.494;11.958;2022-10-20T12:10:32;14.10;94.20
7192;DHT22;3637;51.494;11.958;2022-10-20T12:13:45;14.20;94.20
7192;DHT22;3637;51.494;11.958;2022-10-20T12:17:12;14.30;94.00
7192;DHT22;3637;51.494;11.958;2022-10-20T12:24:00;14.40;93.20
7192;DHT22;3637;51.494;11.958;2022-10-20T12:27:25;14.50;92.60
7192;DHT22;3637;51.494;11.958;2022-10-20T12:30:42;14.40;92.30
7192;DHT22;3637;51.494;11.958;2022-10-20T12:34:00;14.50;92.40
7192;DHT22;3637;51.494;11.958;2022-10-20T12:37:06;14.60;92.10
7192;DHT22;3637;51.494;11.958;2022-10-20T12:40:24;14.60;92.30
7192;DHT22;3637;51.494;11.958;2022-10-20T12:43:46;14.60;92.50
7192;DHT22;3637;51.494;11.958;2022-10-20T12:46:55;14.60;93.10
7192;DHT22;3637;51.494;11.958;2022-10-20T12:50:00;14.50;93.70
7192;DHT22;3637;51.494;11.958;2022-10-20T12:53:10;14.80;94.30
7192;DHT22;3637;51.494;11.958;2022-10-20T12:56:18;14.60;94.20
7192;DHT22;3637;51.494;11.958;2022-10-20T12:59:45;14.60;94.00
7192;DHT22;3637;51.494;11.958;2022-10-20T13:02:49;14.60;93.70
7192;DHT22;3637;51.494;11.958;2022-10-20T13:05:51;14.60;93.70
7192;DHT22;3637;51.494;11.958;2022-10-20T13:09:20;14.60;94.00
7192;DHT22;3637;51.494;11.958;2022-10-20T13:12:25;14.60;93.90
7192;DHT22;3637;51.494;11.958;2022-10-20T13:15:32;14.70;93.80
7192;DHT22;3637;51.494;11.958;2022-10-20T13:18:38;14.60;93.90
7192;DHT22;3637;51.494;11.958;2022-10-20T13:21:44;14.60;93.90
7192;DHT22;3637;51.494;11.958;2022-10-20T13:24:46;14.60;93.40
7192;DHT22;3637;51.494;11.958;2022-10-20T13:27:50;14.70;93.00
7192;DHT22;3637;51.494;11.958;2022-10-20T13:31:07;14.90;93.30
7192;DHT22;3637;51.494;11.958;2022-10-20T13:34:17;14.80;93.20
7192;DHT22;3637;51.494;11.958;2022-10-20T13:37:35;14.70;93.40
7192;DHT22;3637;51.494;11.958;2022-10-20T13:40:49;14.70;93.90
7192;DHT22;3637;51.494;11.958;2022-10-20T13:43:58;14.80;94.20
7192;DHT22;3637;51.494;11.958;2022-10-20T13:47:11;14.70;94.80
7192;DHT22;3637;51.494;11.958;2022-10-20T13:50:16;14.70;95.30
7192;DHT22;3637;51.494;11.958;2022-10-20T13:53:23;14.80;95.40
7192;DHT22;3637;51.494;11.958;2022-10-20T13:56:30;14.70;95.10
7192;DHT22;3637;51.494;11.958;2022-10-20T13:59:35;15.00;95.30
7192;DHT22;3637;51.494;11.958;2022-10-20T14:02:37;14.80;95.50
7192;DHT22;3637;51.494;11.958;2022-10-20T14:05:39;15.00;95.40
7192;DHT22;3637;51.494;11.958;2022-10-20T14:08:43;15.00;95.70
7192;DHT22;3637;51.494;11.958;2022-10-20T14:11:47;14.80;95.80
7192;DHT22;3637;51.494;11.958;2022-10-20T14:14:54;14.80;95.90
7192;DHT22;3637;51.494;11.958;2022-10-20T14:17:58;14.00;95.80
7192;DHT22;3637;51.494;11.958;2022-10-20T14:21:03;14.80;96.20
7192;DHT22;3637;51.494;11.958;2022-10-20T14:24:05;14.70;96.40
7192;DHT22;3637;51.494;11.958;2022-10-20T14:27:16;14.80;97.00
7192;DHT22;3637;51.494;11.958;2022-10-20T14:30:20;14.50;97.20
7192;DHT22;3637;51.494;11.958;2022-10-20T14:33:23;14.60;97.60
7192;DHT22;3637;51.494;11.958;2022-10-20T14:36:27;14.80;97.90
7192;DHT22;3637;51.494;11.958;2022-10-20T14:39:34;14.20;97.70
7192;DHT22;3637;51.494;11.958;2022-10-20T14:42:36;14.50;97.80
7192;DHT22;3637;51.494;11.958;2022-10-20T14:45:53;14.40;98.00
7192;DHT22;3637;51.494;11.958;2022-10-20T14:48:57;14.50;98.50
7192;DHT22;3637;51.494;11.958;2022-10-20T14:52:00;14.30;98.90
7192;DHT22;3637;51.494;11.958;2022-10-20T14:55:30;14.30;99.40
7192;DHT22;3637;51.494;11.958;2022-10-20T14:58:35;14.10;99.80
7192;DHT22;3637;51.494;11.958;2022-10-20T15:01:39;14.20;99.90
7192;DHT22;3637;51.494;11.958;2022-10-20T15:04:48;14.20;99.90
7192;DHT22;3637;51.494;11.958;2022-10-20T15:07:51;14.00;99.90
7192;DHT22;3637;51.494;11.958;2022-10-20T15:10:54;14.10;99.90
7192;DHT22;3637;51.494;11.958;2022-10-20T15:13:59;14.20;99.90
7192;DHT22;3637;51.494;11.958;2022-10-20T15:17:03;13.90;99.90
7192;DHT22;3637;51.494;11.958;2022-10-20T15:20:33;14.00;99.90
7192;DHT22;3637;51.494;11.958;2022-10-20T15:23:36;13.90;99.90
7192;DHT22;3637;51.494;11.958;2022-10-20T15:26:38;13.90;99.90
7192;DHT22;3637;51.494;11.958;2022-10-20T15:29:46;13.80;99.90
7192;DHT22;3637;51.494;11.958;2022-10-20T15:32:51;13.80;99.90
7192;DHT22;3637;51.494;11.958;2022-10-20T15:35:53;13.80;99.90
7192;DHT22;3637;51.494;11.958;2022-10-20T15:38:56;14.00;99.90
7192;DHT22;3637;51.494;11.958;2022-10-20T15:41:57;13.70;99.90
7192;DHT22;3637;51.494;11.958;2022-10-20T15:44:59;13.70;99.90
7192;DHT22;3637;51.494;11.958;2022-10-20T15:48:03;13.60;99.90
7192;DHT22;3637;51.494;11.958;2022-10-20T15:51:13;13.50;99.90
7192;DHT22;3637;51.494;11.958;2022-10-20T15:54:18;13.40;99.90
7192;DHT22;3637;51.494;11.958;2022-10-20T15:57:20;13.40;99.90
7192;DHT22;3637;51.494;11.958;2022-10-20T16:00:23;13.40;99.90
7192;DHT22;3637;51.494;11.958;2022-10-20T16:03:27;13.30;99.90
7192;DHT22;3637;51.494;11.958;2022-10-20T16:06:31;13.50;99.90
7192;DHT22;3637;51.494;11.958;2022-10-20T16:09:36;13.50;99.90
7192;DHT22;3637;51.494;11.958;2022-10-20T16:12:38;13.20;99.90
7192;DHT22;3637;51.494;11.958;2022-10-20T16:15:41;13.10;99.90
7192;DHT22;3637;51.494;11.958;2022-10-20T16:18:44;13.10;99.90
7192;DHT22;3637;51.494;11.958;2022-10-20T16:21:46;13.20;99.90
7192;DHT22;3637;51.494;11.958;2022-10-20T16:24:48;13.00;99.90
7192;DHT22;3637;51.494;11.958;2022-10-20T16:27:50;12.80;99.90
7192;DHT22;3637;51.494;11.958;2022-10-20T16:31:00;13.00;99.90
7192;DHT22;3637;51.494;11.958;2022-10-20T16:34:04;13.00;99.90
7192;DHT22;3637;51.494;11.958;2022-10-20T16:37:06;13.00;99.90
7192;DHT22;3637;51.494;11.958;2022-10-20T16:40:09;13.00;99.90
7192;DHT22;3637;51.494;11.958;2022-10-20T16:43:11;13.00;99.90
7192;DHT22;3637;51.494;11.958;2022-10-20T16:46:13;13.00;99.90
7192;DHT22;3637;51.494;11.958;2022-10-20T16:49:17;12.90;99.90
7192;DHT22;3637;51.494;11.958;2022-10-20T16:52:19;13.10;99.90
7192;DHT22;3637;51.494;11.958;2022-10-20T16:55:21;12.80;99.90
7192;DHT22;3637;51.494;11.958;2022-10-20T16:58:23;12.80;99.90
7192;DHT22;3637;51.494;11.958;2022-10-20T17:01:26;12.70;99.90
7192;DHT22;3637;51.494;11.958;2022-10-20T17:04:29;12.90;99.90
7192;DHT22;3637;51.494;11.958;2022-10-20T17:07:31;12.70;99.90
7192;DHT22;3637;51.494;11.958;2022-10-20T17:10:33;12.60;99.90
7192;DHT22;3637;51.494;11.958;2022-10-20T17:13:35;12.60;99.90
7192;DHT22;3637;51.494;11.958;2022-10-20T17:16:38;12.60;99.90
7192;DHT22;3637;51.494;11.958;2022-10-20T17:19:43;12.70;99.90
7192;DHT22;3637;51.494;11.958;2022-10-20T17:22:45;12.60;99.90
7192;DHT22;3637;51.494;11.958;2022-10-20T17:25:47;12.70;99.90
7192;DHT22;3637;51.494;11.958;2022-10-20T17:28:52;12.60;99.90
7192;DHT22;3637;51.494;11.958;2022-10-20T17:31:54;12.50;99.90
7192;DHT22;3637;51.494;11.958;2022-10-20T17:34:57;12.50;99.90
7192;DHT22;3637;51.494;11.958;2022-10-20T17:37:59;12.50;99.90
7192;DHT22;3637;51.494;11.958;2022-10-20T17:41:02;12.40;99.90
7192;DHT22;3637;51.494;11.958;2022-10-20T17:44:04;12.40;99.90
7192;DHT22;3637;51.494;11.958;2022-10-20T17:47:07;12.50;99.90
7192;DHT22;3637;51.494;11.958;2022-10-20T17:50:11;12.40;99.90
7192;DHT22;3637;51.494;11.958;2022-10-20T17:53:13;12.30;99.90
7192;DHT22;3637;51.494;11.958;2022-10-20T17:56:17;12.40;99.90
7192;DHT22;3637;51.494;11.958;2022-10-20T17:59:19;12.40;99.90
7192;DHT22;3637;51.494;11.958;2022-10-20T18:02:21;12.20;99.90
7192;DHT22;3637;51.494;11.958;2022-10-20T18:05:25;12.40;99.90
7192;DHT22;3637;51.494;11.958;2022-10-20T18:08:27;12.20;99.90
7192;DHT22;3637;51.494;11.958;2022-10-20T18:11:31;12.30;99.90
7192;DHT22;3637;51.494;11.958;2022-10-20T18:14:33;12.10;99.90
7192;DHT22;3637;51.494;11.958;2022-10-20T18:17:35;12.20;99.90
7192;DHT22;3637;51.494;11.958;2022-10-20T18:20:38;12.30;99.90
7192;DHT22;3637;51.494;11.958;2022-10-20T18:23:40;12.30;99.90
7192;DHT22;3637;51.494;11.958;2022-10-20T18:26:45;12.30;99.90
7192;DHT22;3637;51.494;11.958;2022-10-20T18:29:47;12.30;99.90
7192;DHT22;3637;51.494;11.958;2022-10-20T18:32:49;12.30;99.90
7192;DHT22;3637;51.494;11.958;2022-10-20T18:35:53;12.30;99.90
7192;DHT22;3637;51.494;11.958;2022-10-20T18:38:55;12.30;99.90
7192;DHT22;3637;51.494;11.958;2022-10-20T18:41:57;12.30;99.90
7192;DHT22;3637;51.494;11.958;2022-10-20T18:44:59;12.30;99.90
7192;DHT22;3637;51.494;11.958;2022-10-20T18:48:01;12.40;99.90
7192;DHT22;3637;51.494;11.958;2022-10-20T18:51:06;12.30;99.90
7192;DHT22;3637;51.494;11.958;2022-10-20T18:54:09;12.30;99.90
7192;DHT22;3637;51.494;11.958;2022-10-20T18:57:11;12.40;99.90
7192;DHT22;3637;51.494;11.958;2022-10-20T19:00:13;12.40;99.90
7192;DHT22;3637;51.494;11.958;2022-10-20T19:03:15;12.40;99.90
7192;DHT22;3637;51.494;11.958;2022-10-20T19:06:21;12.40;99.90
7192;DHT22;3637;51.494;11.958;2022-10-20T19:09:23;12.50;99.90
7192;DHT22;3637;51.494;11.958;2022-10-20T19:12:25;12.50;99.90
7192;DHT22;3637;51.494;11.958;2022-10-20T19:15:29;12.50;99.90
7192;DHT22;3637;51.494;11.958;2022-10-20T19:18:31;12.50;99.90
7192;DHT22;3637;51.494;11.958;2022-10-20T19:21:36;12.60;99.90
7192;DHT22;3637;51.494;11.958;2022-10-20T19:24:38;13.00;99.90
7192;DHT22;3637;51.494;11.958;2022-10-20T19:27:41;12.60;99.90
7192;DHT22;3637;51.494;11.958;2022-10-20T19:30:42;12.70;99.90
7192;DHT22;3637;51.494;11.958;2022-10-20T19:33:47;12.70;99.90
7192;DHT22;3637;51.494;11.958;2022-10-20T19:36:51;12.80;99.90
7192;DHT22;3637;51.494;11.958;2022-10-20T19:39:52;12.70;99.90
7192;DHT22;3637;51.494;11.958;2022-10-20T19:42:54;12.70;99.90
7192;DHT22;3637;51.494;11.958;2022-10-20T19:45:57;12.70;99.90
7192;DHT22;3637;51.494;11.958;2022-10-20T19:48:59;12.70;99.90
7192;DHT22;3637;51.494;11.958;2022-10-20T19:52:03;12.70;99.90
7192;DHT22;3637;51.494;11.958;2022-10-20T19:55:06;12.80;99.90
7192;DHT22;3637;51.494;11.958;2022-10-20T19:58:07;12.60;99.90
7192;DHT22;3637;51.494;11.958;2022-10-20T20:01:09;12.60;99.90
7192;DHT22;3637;51.494;11.958;2022-10-20T20:04:16;12.80;99.90
7192;DHT22;3637;51.494;11.958;2022-10-20T20:07:22;12.80;99.90
7192;DHT22;3637;51.494;11.958;2022-10-20T20:10:24;12.60;99.90
7192;DHT22;3637;51.494;11.958;2022-10-20T20:13:26;12.50;99.90
7192;DHT22;3637;51.494;11.958;2022-10-20T20:16:28;12.40;99.90
7192;DHT22;3637;51.494;11.958;2022-10-20T20:19:30;12.40;99.90